Time;durP1;ratioP1;P1;durP2;ratioP2;P2;SDS_P1;SDS_P2;PMS_P1;PMS_P2;Temp;Humidity;BMP_temperature;BMP_pressure;BME280_temperature;BME280_humidity;BME280_pressure;Samples;Min_cycle;Max_cycle;Signal;HPM_P1;HPM_P2
2023/01/11 00:01:50;;;;;;;10.63;6.93;;;8.50;99.90;;;;;;5100453;27;20027;-84
2023/01/11 00:04:15;;;;;;;9.77;6.32;;;8.50;99.90;;;;;;5100992;27;20753;-83
2023/01/11 00:06:41;;;;;;;10.60;6.20;;;8.50;99.90;;;;;;5122847;27;20127;-84
2023/01/11 00:09:07;;;;;;;11.38;6.88;;;8.50;99.90;;;;;;5087115;27;20074;-84
2023/01/11 00:11:32;;;;;;;9.45;5.95;;;8.50;99.90;;;;;;5120946;27;20031;-83
2023/01/11 00:13:58;;;;;;;10.02;6.38;;;8.50;99.90;;;;;;5103026;27;20639;-84
2023/01/11 00:16:23;;;;;;;8.55;5.28;;;8.50;99.90;;;;;;5124903;27;20106;-83
2023/01/11 00:18:49;;;;;;;8.77;5.63;;;8.50;99.90;;;;;;5088229;27;20370;-84
2023/01/11 00:21:15;;;;;;;9.30;5.78;;;8.60;99.90;;;;;;5102352;27;20088;-84
2023/01/11 00:23:41;;;;;;;8.35;5.88;;;8.60;99.90;;;;;;5103769;27;20047;-84
2023/01/11 00:26:10;;;;;;;9.48;5.65;;;8.60;99.90;;;;;;5112471;27;20035;-84
2023/01/11 00:28:36;;;;;;;8.18;5.53;;;8.70;99.90;;;;;;5128682;27;20562;-84
2023/01/11 00:31:02;;;;;;;9.45;5.55;;;8.70;99.90;;;;;;5126679;27;20035;-84
2023/01/11 00:33:27;;;;;;;9.13;5.35;;;8.70;99.90;;;;;;5141316;27;20026;-84
2023/01/11 00:35:53;;;;;;;7.55;5.22;;;8.70;99.90;;;;;;5134932;27;20027;-84
2023/01/11 00:49:19;;;;;;;8.15;4.95;;;8.80;99.90;;;;;;5123004;27;20046;-84
2023/01/11 00:51:45;;;;;;;7.28;4.75;;;8.90;99.90;;;;;;5116641;27;20038;-84
2023/01/11 00:54:11;;;;;;;7.78;4.63;;;8.90;99.90;;;;;;5111090;27;20092;-84
2023/01/11 00:56:36;;;;;;;8.40;5.13;;;8.90;99.90;;;;;;5117954;27;20052;-84
2023/01/11 00:59:03;;;;;;;7.30;4.97;;;8.90;99.90;;;;;;5134323;27;20030;-84
2023/01/11 01:01:29;;;;;;;8.10;4.78;;;8.90;99.90;;;;;;5136076;27;20042;-84
2023/01/11 01:03:55;;;;;;;9.07;5.25;;;9.00;99.90;;;;;;5116043;28;20150;-84
2023/01/11 01:06:21;;;;;;;7.65;5.40;;;9.00;99.90;;;;;;5138462;27;20039;-84
2023/01/11 01:08:47;;;;;;;9.57;5.50;;;9.00;99.90;;;;;;5118229;27;20043;-84
2023/01/11 01:11:13;;;;;;;7.18;4.80;;;9.00;99.90;;;;;;5115565;27;20956;-84
2023/01/11 01:16:23;;;;;;;6.95;4.43;;;9.00;99.90;;;;;;5113041;27;20046;-84
2023/01/11 01:18:48;;;;;;;7.55;5.20;;;9.10;99.90;;;;;;5107784;27;20031;-84
2023/01/11 01:21:14;;;;;;;8.32;5.30;;;9.10;99.90;;;;;;5136335;27;20122;-84
2023/01/11 01:23:40;;;;;;;6.95;4.97;;;9.10;99.90;;;;;;5109433;28;20126;-84
2023/01/11 01:26:06;;;;;;;7.53;5.15;;;9.10;99.90;;;;;;5123266;27;20046;-84
2023/01/11 01:28:32;;;;;;;9.88;5.00;;;9.10;99.90;;;;;;5120076;27;20071;-84
2023/01/11 01:30:57;;;;;;;9.07;4.80;;;9.40;99.90;;;;;;5123585;27;20038;-84
2023/01/11 01:33:23;;;;;;;6.55;4.93;;;9.10;99.90;;;;;;5141731;27;20034;-84
2023/01/11 01:35:49;;;;;;;9.57;4.80;;;9.10;99.90;;;;;;5133498;27;20143;-84
2023/01/11 01:38:15;;;;;;;7.68;4.80;;;9.10;99.90;;;;;;5136906;27;20122;-85
2023/01/11 01:40:47;;;;;;;7.55;4.50;;;9.20;99.90;;;;;;5122914;27;20047;-84
2023/01/11 01:43:15;;;;;;;8.90;4.80;;;9.20;99.90;;;;;;5130924;27;20389;-84
2023/01/11 01:45:42;;;;;;;7.97;4.97;;;9.20;99.90;;;;;;5122630;27;20047;-84
2023/01/11 01:48:24;;;;;;;7.97;4.55;;;9.20;99.90;;;;;;5121628;27;20117;-84
2023/01/11 01:50:55;;;;;;;8.85;5.10;;;9.30;99.90;;;;;;5115345;27;20051;-84
2023/01/11 01:53:40;;;;;;;7.60;5.13;;;9.30;99.90;;;;;;5110645;27;20043;-84
2023/01/11 01:56:13;;;;;;;7.40;4.60;;;9.40;99.90;;;;;;5113879;27;20043;-85
2023/01/11 01:58:51;;;;;;;8.95;4.22;;;9.40;99.90;;;;;;5135895;27;20409;-84
2023/01/11 02:04:10;;;;;;;5.50;3.83;;;9.40;99.90;;;;;;5112179;27;20043;-84
2023/01/11 02:06:36;;;;;;;8.18;4.38;;;9.40;99.90;;;;;;5120449;27;20053;-84
2023/01/11 02:09:07;;;;;;;7.65;4.03;;;9.50;99.90;;;;;;5137767;27;20921;-84
2023/01/11 02:11:37;;;;;;;6.47;3.80;;;9.50;99.90;;;;;;5104157;27;20067;-84
2023/01/11 02:14:08;;;;;;;5.82;3.38;;;9.50;99.90;;;;;;5135739;27;20027;-84
2023/01/11 02:16:34;;;;;;;6.32;3.42;;;9.60;99.90;;;;;;5106163;27;20096;-85
2023/01/11 02:19:00;;;;;;;5.55;3.50;;;9.60;99.90;;;;;;5107844;27;20134;-85
2023/01/11 02:21:45;;;;;;;5.80;3.58;;;9.60;99.90;;;;;;5107410;27;20125;-84
2023/01/11 02:24:31;;;;;;;;;;;9.60;99.90;;;;;;5118726;27;20047;-85
2023/01/11 02:27:15;;;;;;;5.28;2.95;;;9.60;99.90;;;;;;5116880;27;19914;-85
2023/01/11 02:29:59;;;;;;;5.43;3.38;;;9.70;99.90;;;;;;5136998;27;20488;-85
2023/01/11 02:32:58;;;;;;;5.93;3.40;;;9.70;99.90;;;;;;5137832;27;20614;-85
2023/01/11 02:35:48;;;;;;;6.68;3.38;;;9.70;99.90;;;;;;5143608;27;20030;-85
2023/01/11 02:38:27;;;;;;;5.97;3.08;;;9.70;99.90;;;;;;5112426;27;20122;-85
2023/01/11 02:41:04;;;;;;;4.68;2.63;;;9.70;99.90;;;;;;5116973;27;20039;-85
2023/01/11 02:47:07;;;;;;;5.03;2.60;;;9.80;99.90;;;;;;5138625;27;20121;-85
2023/01/11 02:49:45;;;;;;;4.82;2.55;;;9.80;99.90;;;;;;5001857;28;20040;-85
2023/01/11 02:52:20;;;;;;;4.63;2.90;;;9.80;99.90;;;;;;5015057;28;20060;-85
2023/01/11 02:54:52;;;;;;;3.95;2.40;;;9.80;99.90;;;;;;5011372;28;20493;-85
2023/01/11 02:57:21;;;;;;;6.38;2.88;;;9.90;99.90;;;;;;5033615;28;20056;-85
2023/01/11 02:59:48;;;;;;;3.85;2.28;;;9.80;99.90;;;;;;5001464;28;20056;-85
2023/01/11 03:02:15;;;;;;;4.82;2.60;;;9.90;99.90;;;;;;5020291;28;20055;-85
2023/01/11 03:04:41;;;;;;;5.25;2.67;;;9.90;99.90;;;;;;5025386;28;20147;-85
2023/01/11 03:07:32;;;;;;;3.85;2.15;;;9.90;99.90;;;;;;5037091;28;20541;-85
2023/01/11 03:10:07;;;;;;;4.38;2.45;;;9.90;99.90;;;;;;5005045;28;20060;-85
2023/01/11 03:12:54;;;;;;;4.68;2.58;;;9.90;99.90;;;;;;5005114;28;20049;-85
2023/01/11 03:15:29;;;;;;;3.67;2.22;;;9.90;99.90;;;;;;5032000;28;20055;-86
2023/01/11 03:18:34;;;;;;;4.20;2.25;;;10.00;99.90;;;;;;5011658;28;20525;-86
2023/01/11 03:21:27;;;;;;;4.72;2.08;;;10.20;99.90;;;;;;5003709;28;20064;-86
2023/01/11 03:24:24;;;;;;;4.03;1.98;;;10.00;99.90;;;;;;5094113;27;20501;-86
2023/01/11 03:27:09;;;;;;;4.40;1.77;;;10.00;99.90;;;;;;5110327;27;20126;-86
2023/01/11 03:29:40;;;;;;;5.00;2.13;;;10.00;99.90;;;;;;5113860;27;20082;-86
2023/01/11 03:32:27;;;;;;;4.75;1.90;;;10.00;99.90;;;;;;5124033;27;20034;-86
2023/01/11 03:35:10;;;;;;;4.40;1.98;;;10.00;99.90;;;;;;5099774;27;20580;-86
2023/01/11 03:37:52;;;;;;;4.45;1.90;;;10.00;99.90;;;;;;5097039;27;20070;-86
2023/01/11 03:40:24;;;;;;;6.15;1.88;;;10.00;99.90;;;;;;5129100;27;20031;-86
2023/01/11 03:43:11;;;;;;;3.30;1.70;;;10.00;99.90;;;;;;5122268;27;20115;-86
2023/01/11 03:45:51;;;;;;;2.92;1.45;;;10.00;99.90;;;;;;5119572;27;20047;-85
2023/01/11 03:48:22;;;;;;;3.58;1.17;;;10.00;99.90;;;;;;5105177;27;20095;-86
2023/01/11 03:50:50;;;;;;;4.50;1.00;;;10.00;99.90;;;;;;5105125;27;20046;-86
2023/01/11 03:53:18;;;;;;;2.92;0.85;;;10.00;99.90;;;;;;5123695;27;20489;-85
2023/01/11 03:55:48;;;;;;;2.22;0.90;;;10.10;99.90;;;;;;5130409;27;20043;-86
2023/01/11 03:58:14;;;;;;;1.98;0.90;;;10.10;99.90;;;;;;5120210;27;20109;-86
2023/01/11 04:00:40;;;;;;;2.10;0.88;;;10.10;99.90;;;;;;5122798;27;20042;-85
2023/01/11 04:03:08;;;;;;;1.60;0.70;;;10.10;99.90;;;;;;5097907;27;20333;-86
2023/01/11 04:05:35;;;;;;;2.90;0.70;;;9.80;99.90;;;;;;5106091;27;20066;-86
2023/01/11 04:08:01;;;;;;;1.27;0.60;;;10.10;99.90;;;;;;5122440;27;20102;-85
2023/01/11 04:10:26;;;;;;;1.27;0.52;;;10.10;99.90;;;;;;5126797;27;20114;-86
2023/01/11 04:12:52;;;;;;;1.60;0.65;;;10.10;99.90;;;;;;5137105;27;20500;-86
2023/01/11 04:15:17;;;;;;;1.45;0.60;;;10.60;99.90;;;;;;5117645;27;20118;-86
2023/01/11 04:17:43;;;;;;;1.73;0.65;;;10.20;99.90;;;;;;5114370;27;20039;-86
2023/01/11 04:20:10;;;;;;;4.63;1.38;;;10.10;99.90;;;;;;5118681;27;20049;-86
2023/01/11 04:22:36;;;;;;;4.25;0.80;;;10.10;99.90;;;;;;5119541;27;20461;-86
2023/01/11 04:25:02;;;;;;;2.53;0.90;;;10.20;99.90;;;;;;5100742;27;20042;-86
2023/01/11 04:27:27;;;;;;;5.20;1.30;;;10.20;99.90;;;;;;5111656;27;20074;-86
2023/01/11 04:29:53;;;;;;;4.50;1.23;;;10.20;99.90;;;;;;5135701;27;20033;-85
2023/01/11 04:32:19;;;;;;;5.05;1.90;;;10.20;99.90;;;;;;5118034;27;20120;-86
2023/01/11 04:34:44;;;;;;;4.22;1.50;;;10.20;99.90;;;;;;5135079;27;20050;-86
2023/01/11 04:37:10;;;;;;;7.20;2.38;;;10.20;99.90;;;;;;5116608;27;20122;-86
2023/01/11 04:39:37;;;;;;;8.30;3.22;;;10.20;99.90;;;;;;5102832;27;20074;-86
2023/01/11 04:42:17;;;;;;;9.68;3.15;;;10.20;99.90;;;;;;5108654;27;20039;-86
2023/01/11 04:44:45;;;;;;;11.38;3.95;;;10.20;99.90;;;;;;5129231;27;20035;-86
2023/01/11 04:47:10;;;;;;;12.88;4.07;;;10.20;99.90;;;;;;5090348;27;20048;-85
2023/01/11 04:49:36;;;;;;;12.43;3.85;;;10.30;99.90;;;;;;5124475;27;20540;-86
2023/01/11 04:52:02;;;;;;;16.42;4.38;;;10.30;99.90;;;;;;5111214;28;20469;-85
2023/01/11 04:54:27;;;;;;;26.02;4.80;;;10.30;99.90;;;;;;5101708;27;20036;-86
2023/01/11 04:56:53;;;;;;;16.58;4.05;;;10.40;99.90;;;;;;5110079;28;20043;-86
2023/01/11 04:59:19;;;;;;;15.95;4.57;;;10.40;99.90;;;;;;5114020;27;20038;-85
2023/01/11 05:01:44;;;;;;;18.50;4.18;;;10.40;99.90;;;;;;5118027;27;20130;-86
2023/01/11 05:04:10;;;;;;;17.27;3.45;;;10.40;99.90;;;;;;5130662;27;20031;-86
2023/01/11 05:06:35;;;;;;;23.02;4.32;;;10.40;99.90;;;;;;5114625;27;20043;-86
2023/01/11 05:09:01;;;;;;;24.20;4.75;;;10.40;99.90;;;;;;5115092;27;20047;-85
2023/01/11 05:11:27;;;;;;;16.38;3.72;;;10.40;99.90;;;;;;5111606;27;20038;-85
2023/01/11 05:13:52;;;;;;;20.77;4.40;;;10.40;99.90;;;;;;5109934;27;20118;-86
2023/01/11 05:16:22;;;;;;;21.15;4.10;;;10.40;99.90;;;;;;5116150;27;20030;-86
2023/01/11 05:18:49;;;;;;;21.95;4.88;;;10.60;99.90;;;;;;5142379;27;20054;-86
2023/01/11 05:21:17;;;;;;;21.70;3.85;;;10.50;99.90;;;;;;5118451;28;20539;-86
2023/01/11 05:23:43;;;;;;;24.52;4.05;;;10.40;99.90;;;;;;5114743;28;20477;-86
2023/01/11 05:26:14;;;;;;;21.60;4.28;;;10.40;99.90;;;;;;5131595;27;20051;-86
2023/01/11 05:28:40;;;;;;;19.20;3.50;;;10.40;99.90;;;;;;5116191;27;20042;-86
2023/01/11 05:31:06;;;;;;;20.25;4.68;;;10.40;99.90;;;;;;5113434;28;20039;-85
2023/01/11 05:33:32;;;;;;;20.02;4.40;;;10.30;99.90;;;;;;5137203;27;20117;-85
2023/01/11 05:36:00;;;;;;;25.90;3.85;;;10.30;99.90;;;;;;5135038;27;20059;-86
2023/01/11 05:38:25;;;;;;;23.88;3.60;;;10.30;99.90;;;;;;5119939;27;20053;-86
2023/01/11 05:41:00;;;;;;;19.35;3.50;;;10.30;99.90;;;;;;5105367;27;20050;-86
2023/01/11 05:43:28;;;;;;;22.75;3.72;;;10.30;99.90;;;;;;5132862;27;20142;-86
2023/01/11 05:45:55;;;;;;;23.15;3.55;;;10.30;99.90;;;;;;5119430;27;20042;-86
2023/01/11 05:48:20;;;;;;;17.58;3.00;;;10.20;99.90;;;;;;5116485;27;20464;-85
2023/01/11 05:50:54;;;;;;;25.60;4.13;;;10.20;99.90;;;;;;5117551;27;20030;-86
2023/01/11 05:53:20;;;;;;;21.65;3.22;;;10.20;99.90;;;;;;5125859;27;20122;-85
2023/01/11 05:55:52;;;;;;;17.83;3.72;;;10.10;99.90;;;;;;5098032;28;20046;-86
2023/01/11 05:58:18;;;;;;;28.23;3.95;;;10.10;99.90;;;;;;5106960;27;20039;-86
2023/01/11 06:00:47;;;;;;;26.48;4.35;;;10.10;99.90;;;;;;5125254;27;20035;-86
2023/01/11 06:03:13;;;;;;;28.80;3.47;;;10.10;99.90;;;;;;5103992;28;20035;-86
2023/01/11 06:05:39;;;;;;;20.60;3.13;;;10.10;99.90;;;;;;5112639;27;20045;-86
2023/01/11 06:08:04;;;;;;;14.90;2.95;;;10.10;99.90;;;;;;5128309;27;20122;-86
2023/01/11 06:10:30;;;;;;;22.52;2.90;;;10.10;99.90;;;;;;5099318;27;20038;-85
2023/01/11 06:13:25;;;;;;;21.55;2.97;;;10.00;99.90;;;;;;5137396;27;20488;-85
2023/01/11 06:15:41;;;;;;;20.52;2.45;;;10.00;99.90;;;;;;5108213;27;20446;-86
2023/01/11 06:18:07;;;;;;;23.88;2.95;;;10.00;99.90;;;;;;5115614;27;20032;-86
2023/01/11 06:20:32;;;;;;;23.35;4.32;;;9.90;99.90;;;;;;5117453;27;20039;-86
2023/01/11 06:22:58;;;;;;;20.15;3.53;;;9.90;99.90;;;;;;5122210;27;20031;-87
2023/01/11 06:25:24;;;;;;;27.25;3.80;;;9.90;99.90;;;;;;5134166;27;20401;-84
2023/01/11 06:27:49;;;;;;;21.27;2.88;;;9.90;99.90;;;;;;5127353;27;20063;-85
2023/01/11 06:30:15;;;;;;;20.98;2.90;;;9.80;99.90;;;;;;5128815;27;20030;-87
2023/01/11 06:32:40;;;;;;;31.55;3.80;;;9.80;99.90;;;;;;5141513;27;20034;-85
2023/01/11 06:35:06;;;;;;;25.20;4.00;;;9.70;99.90;;;;;;5117422;27;20027;-87
2023/01/11 06:37:32;;;;;;;23.05;3.85;;;9.70;99.90;;;;;;5124242;27;20079;-88
2023/01/11 06:39:57;;;;;;;26.42;3.55;;;9.70;99.90;;;;;;5138163;27;20067;-87
2023/01/11 06:42:23;;;;;;;21.30;3.78;;;9.60;99.90;;;;;;5119540;27;20035;-88
2023/01/11 06:44:49;;;;;;;21.27;3.30;;;9.60;99.90;;;;;;5129664;27;20051;-88
2023/01/11 06:47:14;;;;;;;25.42;3.05;;;9.50;99.90;;;;;;5120659;27;20039;-87
2023/01/11 06:49:40;;;;;;;25.23;3.38;;;9.50;99.90;;;;;;5136856;27;20058;-87
2023/01/11 06:52:05;;;;;;;27.85;4.47;;;9.50;99.90;;;;;;5129852;27;20035;-87
2023/01/11 06:54:31;;;;;;;28.08;3.80;;;9.50;99.90;;;;;;5134936;27;20035;-87
2023/01/11 06:56:56;;;;;;;21.00;3.42;;;9.50;99.90;;;;;;5143298;27;20127;-88
2023/01/11 06:59:22;;;;;;;24.70;4.43;;;9.40;99.90;;;;;;5133331;27;20031;-87
2023/01/11 07:01:47;;;;;;;23.55;3.92;;;9.40;99.90;;;;;;5140045;27;20507;-88
2023/01/11 07:04:13;;;;;;;25.88;3.20;;;9.40;99.90;;;;;;5115290;27;20088;-87
2023/01/11 07:06:39;;;;;;;22.17;3.88;;;9.40;99.90;;;;;;5140467;27;20030;-86
2023/01/11 07:09:04;;;;;;;29.88;4.25;;;9.30;99.90;;;;;;5123602;27;20051;-86
2023/01/11 07:11:33;;;;;;;17.15;2.80;;;9.30;99.90;;;;;;5133369;27;20094;-84
2023/01/11 07:13:59;;;;;;;20.35;3.20;;;9.40;99.90;;;;;;5132610;27;20042;-87
2023/01/11 07:16:24;;;;;;;24.77;3.53;;;9.40;99.90;;;;;;5118481;27;20035;-88
2023/01/11 07:18:50;;;;;;;18.35;3.20;;;9.40;99.90;;;;;;5104696;27;21060;-88
2023/01/11 07:21:15;;;;;;;23.48;3.75;;;9.40;99.90;;;;;;5110525;27;20049;-88
2023/01/11 07:23:41;;;;;;;25.55;3.45;;;9.40;99.90;;;;;;5139989;27;20039;-87
2023/01/11 07:26:06;;;;;;;19.00;2.45;;;9.40;99.90;;;;;;5119865;27;20039;-88
2023/01/11 07:28:32;;;;;;;22.98;3.05;;;9.60;99.90;;;;;;5139167;27;20035;-86
2023/01/11 07:30:58;;;;;;;19.60;2.08;;;9.30;99.90;;;;;;5142281;27;20136;-85
2023/01/11 07:33:24;;;;;;;21.77;2.75;;;9.30;99.90;;;;;;5129550;27;20039;-86
2023/01/11 07:35:50;;;;;;;29.08;2.58;;;9.20;99.90;;;;;;5129255;27;20054;-85
2023/01/11 07:38:16;;;;;;;29.48;3.65;;;9.20;99.90;;;;;;5119798;27;20035;-85
2023/01/11 07:40:41;;;;;;;25.85;3.72;;;9.20;99.90;;;;;;5099781;27;20122;-85
2023/01/11 07:43:13;;;;;;;20.50;3.03;;;9.20;99.90;;;;;;5115618;27;20109;-84
2023/01/11 07:45:41;;;;;;;23.83;3.03;;;9.20;99.90;;;;;;5140023;27;20057;-82
2023/01/11 07:48:09;;;;;;;21.85;2.78;;;9.20;99.90;;;;;;5138457;27;20066;-82
2023/01/11 07:50:39;;;;;;;17.08;2.13;;;10.00;99.90;;;;;;5145436;27;20075;-82
2023/01/11 07:53:05;;;;;;;25.25;2.72;;;9.20;99.90;;;;;;5127459;27;20027;-85
2023/01/11 07:55:31;;;;;;;19.40;2.97;;;9.20;99.90;;;;;;5136409;27;20513;-84
2023/01/11 07:57:57;;;;;;;21.25;2.65;;;9.20;99.90;;;;;;5132662;27;20026;-83
2023/01/11 08:00:23;;;;;;;15.93;2.72;;;9.20;99.90;;;;;;5117735;27;20027;-84
2023/01/11 08:02:51;;;;;;;22.08;3.00;;;9.20;99.90;;;;;;5140304;27;20063;-83
2023/01/11 08:05:20;;;;;;;18.30;3.08;;;9.20;99.90;;;;;;5142548;27;20511;-83
2023/01/11 08:07:46;;;;;;;14.93;2.70;;;9.20;99.90;;;;;;5139793;27;20047;-82
2023/01/11 08:10:12;;;;;;;20.25;2.55;;;9.20;99.90;;;;;;5132953;27;20397;-83
2023/01/11 08:15:31;;;;;;;15.80;2.75;;;9.30;99.90;;;;;;5136959;27;20444;-83
2023/01/11 08:17:57;;;;;;;17.27;2.40;;;9.20;99.90;;;;;;5124164;27;20042;-83
2023/01/11 08:20:23;;;;;;;18.75;2.75;;;9.30;99.90;;;;;;5135622;27;20027;-84
2023/01/11 08:22:49;;;;;;;15.73;3.45;;;9.60;99.90;;;;;;5116527;27;20121;-82
2023/01/11 08:25:15;;;;;;;20.15;2.45;;;9.20;99.90;;;;;;5131343;27;20102;-83
2023/01/11 08:27:40;;;;;;;17.05;3.78;;;9.20;99.90;;;;;;5113922;27;20540;-83
2023/01/11 08:30:06;;;;;;;13.98;2.55;;;9.20;99.90;;;;;;5141131;27;20066;-83
2023/01/11 08:32:32;;;;;;;13.50;2.05;;;9.20;99.90;;;;;;5118530;27;20080;-83
2023/01/11 08:34:58;;;;;;;15.77;2.03;;;9.10;99.90;;;;;;5081903;27;20087;-82
2023/01/11 08:37:23;;;;;;;15.07;2.40;;;9.10;99.90;;;;;;5128627;27;20035;-83
2023/01/11 08:39:50;;;;;;;16.80;2.38;;;9.00;99.90;;;;;;5139004;27;20099;-83
2023/01/11 08:42:15;;;;;;;11.68;2.30;;;8.90;99.90;;;;;;5106007;27;20103;-83
2023/01/11 08:44:41;;;;;;;21.25;2.67;;;8.90;99.90;;;;;;5134622;27;20034;-84
2023/01/11 08:47:07;;;;;;;11.30;1.83;;;9.00;99.90;;;;;;5135137;27;20086;-83
2023/01/11 08:49:32;;;;;;;15.18;2.25;;;8.80;99.90;;;;;;5129857;27;20055;-84
2023/01/11 08:51:58;;;;;;;16.38;2.03;;;8.70;99.90;;;;;;5136593;27;20043;-86
2023/01/11 08:54:24;;;;;;;20.52;2.15;;;8.70;99.90;;;;;;5134001;27;20035;-84
2023/01/11 08:56:49;;;;;;;15.32;2.20;;;8.70;99.90;;;;;;5131332;27;20087;-86
2023/01/11 08:59:15;;;;;;;13.27;2.28;;;8.70;99.90;;;;;;5133235;27;20047;-84
2023/01/11 09:01:40;;;;;;;12.38;2.10;;;8.70;99.90;;;;;;5138786;27;20042;-85
2023/01/11 09:04:06;;;;;;;14.52;2.42;;;8.70;99.90;;;;;;5121325;27;20187;-85
2023/01/11 09:06:32;;;;;;;15.27;2.30;;;8.60;99.90;;;;;;5138726;27;20035;-84
2023/01/11 09:08:57;;;;;;;13.65;1.83;;;8.60;99.90;;;;;;5139217;27;20043;-84
2023/01/11 09:14:07;;;;;;;12.63;2.05;;;8.50;99.90;;;;;;5118202;27;20130;-85
2023/01/11 09:16:33;;;;;;;13.15;1.80;;;8.50;99.90;;;;;;5116870;28;20122;-85
2023/01/11 09:18:58;;;;;;;11.75;1.75;;;8.40;99.90;;;;;;5134229;27;20034;-85
2023/01/11 09:21:24;;;;;;;12.57;2.03;;;8.50;99.90;;;;;;5118818;27;20126;-85
2023/01/11 09:23:49;;;;;;;10.25;1.83;;;8.50;99.90;;;;;;5121348;28;20540;-84
2023/01/11 09:26:15;;;;;;;13.10;2.10;;;8.50;99.90;;;;;;5137898;27;20035;-85
2023/01/11 09:28:40;;;;;;;10.65;1.98;;;8.50;99.90;;;;;;5114217;27;20043;-85
2023/01/11 09:31:06;;;;;;;7.88;1.77;;;8.60;99.90;;;;;;5134313;27;20073;-86
2023/01/11 09:33:33;;;;;;;8.23;1.48;;;8.70;99.90;;;;;;5134420;27;20367;-84
2023/01/11 09:36:01;;;;;;;12.68;1.50;;;8.70;99.90;;;;;;5123654;28;20042;-86
2023/01/11 09:38:29;;;;;;;8.90;2.22;;;8.90;99.90;;;;;;5112185;28;20117;-85
2023/01/11 09:41:26;;;;;;;9.45;1.20;;;9.10;99.90;;;;;;5124340;27;20035;-85
2023/01/11 09:44:13;;;;;;;9.85;1.85;;;8.80;99.90;;;;;;5110874;28;20035;-85
2023/01/11 09:46:41;;;;;;;10.60;2.63;;;8.80;99.90;;;;;;5135614;27;20046;-82
2023/01/11 09:49:19;;;;;;;8.57;1.40;;;8.90;99.90;;;;;;5140663;27;20046;-84
2023/01/11 09:51:46;;;;;;;9.57;1.55;;;9.00;99.90;;;;;;5122964;27;20062;-83
2023/01/11 09:54:20;;;;;;;5.97;1.70;;;9.30;99.90;;;;;;5128175;27;20053;-83
2023/01/11 09:56:53;;;;;;;13.07;1.92;;;8.90;99.90;;;;;;5143009;27;20083;-84
2023/01/11 09:59:33;;;;;;;9.80;1.33;;;9.00;99.90;;;;;;5133133;27;20600;-83
2023/01/11 10:02:26;;;;;;;9.02;1.80;;;9.00;99.90;;;;;;5140017;27;20118;-84
2023/01/11 10:05:27;;;;;;;8.75;1.73;;;8.90;99.90;;;;;;5094968;27;20061;-83
2023/01/11 10:08:19;;;;;;;13.02;1.88;;;8.90;99.90;;;;;;5141584;27;20030;-82
2023/01/11 10:11:04;;;;;;;10.93;2.17;;;8.90;99.90;;;;;;5119643;27;20031;-83
2023/01/11 10:13:48;;;;;;;9.43;2.10;;;9.10;99.90;;;;;;5138345;27;20028;-84
2023/01/11 10:16:33;;;;;;;13.02;1.70;;;8.90;99.90;;;;;;5142760;27;20037;-87
2023/01/11 10:19:08;;;;;;;9.68;1.60;;;8.90;99.90;;;;;;5097833;27;20066;-83
2023/01/11 10:21:49;;;;;;;11.82;1.55;;;9.00;99.90;;;;;;5142281;27;20050;-86
2023/01/11 10:24:34;;;;;;;8.77;1.27;;;9.00;99.90;;;;;;5123941;27;20038;-82
2023/01/11 10:27:07;;;;;;;5.80;1.20;;;9.00;99.90;;;;;;5138315;27;20172;-84
2023/01/11 10:32:52;;;;;;;12.98;1.40;;;9.50;99.90;;;;;;5136473;27;20064;-84
2023/01/11 10:35:46;;;;;;;9.55;1.30;;;9.10;99.90;;;;;;5120746;27;20037;-84
2023/01/11 10:41:34;;;;;;;11.95;1.38;;;9.20;99.90;;;;;;5121255;27;20043;-86
2023/01/11 10:44:18;;;;;;;13.27;1.90;;;9.20;99.90;;;;;;5122834;27;20460;-84
2023/01/11 10:46:51;;;;;;;14.52;1.38;;;9.30;99.90;;;;;;5116358;27;20050;-84
2023/01/11 10:49:32;;;;;;;9.80;1.77;;;9.50;99.90;;;;;;5141675;27;20043;-83
2023/01/11 10:52:11;;;;;;;12.13;2.00;;;9.40;99.90;;;;;;5133601;27;20476;-84
2023/01/11 10:54:37;;;;;;;11.50;2.25;;;10.00;99.90;;;;;;5136540;27;20039;-84
2023/01/11 10:57:12;;;;;;;11.52;1.80;;;9.60;99.90;;;;;;5134324;27;20035;-86
2023/01/11 11:00:06;;;;;;;10.07;2.38;;;10.20;99.90;;;;;;5143287;27;20091;-84
2023/01/11 11:02:51;;;;;;;12.13;1.70;;;9.70;99.90;;;;;;5130136;27;20066;-84
2023/01/11 11:05:35;;;;;;;11.63;2.05;;;9.80;99.90;;;;;;5100860;27;20612;-84
2023/01/11 11:08:16;;;;;;;13.00;2.10;;;9.80;99.90;;;;;;5142088;27;20102;-82
2023/01/11 11:11:08;;;;;;;12.23;2.72;;;9.80;99.90;;;;;;5097928;27;20054;-82
2023/01/11 11:13:56;;;;;;;15.35;2.33;;;9.80;99.90;;;;;;5130666;27;20103;-84
2023/01/11 11:16:21;;;;;;;11.93;2.28;;;9.80;99.90;;;;;;5141670;27;20048;-85
2023/01/11 11:18:54;;;;;;;17.20;2.30;;;9.80;99.90;;;;;;5141671;27;20035;-85
2023/01/11 11:21:21;;;;;;;17.08;2.83;;;9.80;99.90;;;;;;5133581;27;20037;-85
2023/01/11 11:23:53;;;;;;;14.48;2.33;;;9.70;99.90;;;;;;5120814;27;20091;-85
2023/01/11 11:26:20;;;;;;;17.00;3.10;;;9.80;99.90;;;;;;5120572;27;20126;-85
2023/01/11 11:29:07;;;;;;;18.45;2.80;;;9.80;99.90;;;;;;5125801;27;20484;-85
2023/01/11 11:31:35;;;;;;;12.90;1.80;;;10.30;99.90;;;;;;5116701;27;20068;-84
2023/01/11 11:34:14;;;;;;;11.75;2.40;;;9.90;99.90;;;;;;5131696;27;20052;-85
2023/01/11 11:36:50;;;;;;;10.18;2.72;;;10.10;99.90;;;;;;5141775;27;20041;-87
2023/01/11 11:39:30;;;;;;;15.52;2.50;;;10.20;99.90;;;;;;5137538;27;20050;-86
2023/01/11 11:42:04;;;;;;;10.43;2.17;;;10.30;99.90;;;;;;5138680;27;20042;-85
2023/01/11 11:44:30;;;;;;;19.20;3.05;;;11.10;99.90;;;;;;5118967;27;20450;-86
2023/01/11 11:46:57;;;;;;;10.13;2.00;;;10.40;99.90;;;;;;5105500;27;20073;-86
2023/01/11 11:49:23;;;;;;;13.10;1.67;;;10.40;99.90;;;;;;5137483;27;20038;-85
2023/01/11 11:51:50;;;;;;;16.35;2.95;;;10.40;99.90;;;;;;5137778;27;20096;-85
2023/01/11 11:54:39;;;;;;;12.48;2.28;;;10.40;99.90;;;;;;5141686;27;20043;-86
2023/01/11 11:57:21;;;;;;;11.23;1.83;;;10.40;99.90;;;;;;5138529;27;20080;-86
2023/01/11 11:59:48;;;;;;;9.85;1.40;;;10.50;99.90;;;;;;5139667;27;20043;-86
2023/01/11 12:02:26;;;;;;;10.77;2.10;;;10.90;99.90;;;;;;5119437;27;20046;-86
2023/01/11 12:04:53;;;;;;;13.13;2.25;;;10.50;99.90;;;;;;5139446;27;20042;-86
2023/01/11 12:07:22;;;;;;;11.77;2.10;;;10.40;99.90;;;;;;5121256;27;20046;-86
2023/01/11 12:10:05;;;;;;;13.70;2.50;;;10.40;99.90;;;;;;5137184;27;20062;-86
2023/01/11 12:12:33;;;;;;;17.23;2.72;;;10.40;99.90;;;;;;5111695;27;20114;-85
2023/01/11 12:15:06;;;;;;;14.73;2.05;;;10.30;99.90;;;;;;5121712;27;20035;-86
2023/01/11 12:17:32;;;;;;;14.70;2.80;;;10.40;99.90;;;;;;5106626;27;20039;-86
2023/01/11 12:19:58;;;;;;;11.00;2.47;;;10.40;99.90;;;;;;5116771;27;20046;-84
2023/01/11 12:22:26;;;;;;;15.68;2.88;;;10.40;99.90;;;;;;5117462;27;20430;-84
2023/01/11 12:25:11;;;;;;;17.35;2.05;;;10.40;99.90;;;;;;5126849;27;20088;-85
2023/01/11 12:27:49;;;;;;;11.82;2.20;;;10.40;99.90;;;;;;5127608;27;20050;-86
2023/01/11 12:30:33;;;;;;;14.90;2.58;;;10.50;99.90;;;;;;5123492;27;20083;-84
2023/01/11 12:33:30;;;;;;;17.60;2.72;;;10.60;99.90;;;;;;5107804;27;20385;-85
2023/01/11 12:36:34;;;;;;;16.83;3.00;;;10.60;99.90;;;;;;5131348;27;20049;-85
2023/01/11 12:39:23;;;;;;;27.67;3.88;;;10.70;99.90;;;;;;5114835;27;20057;-85
2023/01/11 12:41:55;;;;;;;19.15;3.00;;;10.60;99.90;;;;;;5128088;27;20127;-84
2023/01/11 12:44:45;;;;;;;14.13;2.63;;;10.60;99.90;;;;;;5122953;27;20278;-86
2023/01/11 12:47:58;;;;;;;13.23;2.20;;;10.60;99.90;;;;;;5099443;27;20493;-85
2023/01/11 12:50:29;;;;;;;12.65;2.35;;;10.60;99.90;;;;;;5031041;28;20040;-85
2023/01/11 12:53:16;;;;;;;16.05;2.25;;;10.70;99.90;;;;;;4989974;28;20049;-85
2023/01/11 12:56:02;;;;;;;13.38;2.50;;;10.40;99.90;;;;;;5028859;28;20891;-85
2023/01/11 12:58:44;;;;;;;15.75;3.03;;;10.40;99.90;;;;;;5030306;28;20582;-84
2023/01/11 13:01:32;;;;;;;15.55;2.58;;;10.40;99.90;;;;;;5032274;28;20132;-84
2023/01/11 13:04:01;;;;;;;15.45;2.53;;;10.40;99.90;;;;;;5040312;28;20036;-85
2023/01/11 13:06:32;;;;;;;15.52;2.53;;;10.40;99.90;;;;;;5033869;28;20101;-84
2023/01/11 13:09:22;;;;;;;14.88;2.50;;;10.30;99.90;;;;;;5024923;28;20051;-85
2023/01/11 13:11:54;;;;;;;13.70;2.75;;;10.30;99.90;;;;;;5004728;28;20107;-84
2023/01/11 13:14:32;;;;;;;20.95;2.53;;;10.20;99.90;;;;;;5011637;28;20077;-84
2023/01/11 13:17:17;;;;;;;21.40;3.75;;;10.20;99.90;;;;;;5034495;28;20045;-84
2023/01/11 13:20:15;;;;;;;12.88;2.47;;;10.20;99.90;;;;;;4997558;28;20504;-85
2023/01/11 13:22:47;;;;;;;17.58;3.50;;;10.10;99.90;;;;;;5034257;28;20500;-86
2023/01/11 13:25:34;;;;;;;14.50;2.45;;;10.10;99.90;;;;;;5039224;28;20033;-83
2023/01/11 13:28:03;;;;;;;21.13;3.42;;;10.10;99.90;;;;;;5131923;27;20039;-84
2023/01/11 13:30:30;;;;;;;21.75;3.72;;;10.00;99.90;;;;;;5140198;27;20048;-85
2023/01/11 13:33:11;;;;;;;13.38;2.63;;;10.00;99.90;;;;;;5137047;27;20046;-84
2023/01/11 13:35:50;;;;;;;19.67;3.80;;;10.00;99.90;;;;;;5132359;27;20608;-84
2023/01/11 13:38:31;;;;;;;20.05;2.95;;;10.20;99.90;;;;;;5118616;27;20062;-85
2023/01/11 13:41:11;;;;;;;18.50;3.13;;;10.00;99.90;;;;;;5137023;27;20088;-84
2023/01/11 13:44:10;;;;;;;18.25;3.05;;;10.00;99.90;;;;;;5131412;27;20046;-84